createdAt,value
2019-03-23T00:00:36.177Z,70.72
2019-03-23T00:01:36.308Z,71.11
2019-03-23T00:02:36.436Z,71.20
2019-03-23T00:03:36.583Z,71.11
2019-03-23T00:04:36.718Z,70.92
2019-03-23T00:05:36.845Z,71.20
2019-03-23T00:06:36.979Z,71.11
2019-03-23T00:07:37.134Z,71.39
2019-03-23T00:08:37.257Z,71.30
2019-03-23T00:09:37.388Z,71.20
2019-03-23T00:10:37.513Z,71.20
2019-03-23T00:11:37.676Z,71.11
2019-03-23T00:12:37.785Z,71.30
2019-03-23T00:13:37.916Z,71.01
2019-03-23T00:14:38.061Z,70.53
2019-03-23T00:15:38.186Z,70.72
2019-03-23T00:16:38.330Z,71.01
2019-03-23T00:17:38.470Z,70.92
2019-03-23T00:18:38.587Z,70.53
2019-03-23T00:19:38.715Z,70.53
2019-03-23T00:20:38.870Z,70.82
2019-03-23T00:21:38.987Z,71.01
2019-03-23T00:22:39.119Z,70.34
2019-03-23T00:23:39.232Z,70.44
2019-03-23T00:24:39.411Z,70.34
2019-03-23T00:25:39.532Z,70.25
2019-03-23T00:26:39.660Z,70.53
2019-03-23T00:27:39.809Z,70.34
2019-03-23T00:28:39.950Z,70.63
2019-03-23T00:29:40.074Z,70.44
2019-03-23T00:30:40.185Z,70.53
2019-03-23T00:31:40.328Z,70.44
2019-03-23T00:32:40.444Z,70.34
2019-03-23T00:33:40.571Z,70.44
2019-03-23T00:34:40.712Z,70.92
2019-03-23T00:35:40.857Z,70.72
2019-03-23T00:36:41.907Z,71.11
2019-03-23T00:37:41.097Z,71.11
2019-03-23T00:38:41.266Z,71.11
2019-03-23T00:39:41.385Z,70.72
2019-03-23T00:40:41.526Z,70.44
2019-03-23T00:41:41.638Z,70.44
2019-03-23T00:42:41.802Z,69.54
2019-03-23T00:43:41.921Z,69.54
2019-03-23T00:44:42.062Z,70.21
2019-03-23T00:45:42.188Z,70.50
2019-03-23T00:46:42.311Z,70.40
2019-03-23T00:47:42.441Z,70.88
2019-03-23T00:48:42.580Z,70.69
2019-03-23T00:49:42.709Z,70.50
2019-03-23T00:50:42.838Z,70.78
2019-03-23T00:51:42.976Z,70.69
2019-03-23T00:52:43.096Z,71.17
2019-03-23T00:53:43.227Z,70.78
2019-03-23T00:54:43.356Z,70.69
2019-03-23T00:55:43.487Z,70.69
2019-03-23T00:56:43.609Z,70.97
2019-03-23T00:57:43.738Z,70.78
2019-03-23T00:58:43.867Z,70.88
2019-03-23T00:59:44.006Z,70.69
2019-03-23T01:00:44.131Z,71.26
2019-03-23T01:01:44.271Z,71.55
2019-03-23T01:02:44.406Z,71.98
2019-03-23T01:03:44.531Z,71.55
2019-03-23T01:04:44.666Z,71.26
2019-03-23T01:05:44.787Z,70.78
2019-03-23T01:06:52.135Z,71.26
2019-03-23T01:07:45.060Z,70.88
2019-03-23T01:08:45.184Z,70.88
2019-03-23T01:09:45.320Z,70.65
2019-03-23T01:10:45.449Z,71.26
2019-03-23T01:11:45.582Z,71.17
2019-03-23T01:12:45.705Z,71.32
2019-03-23T01:13:45.835Z,71.32
2019-03-23T01:14:45.975Z,70.88
2019-03-23T01:15:48.100Z,70.65
2019-03-23T01:16:46.216Z,71.07
2019-03-23T01:17:46.359Z,71.13
2019-03-23T01:18:46.491Z,71.22
2019-03-23T01:19:46.621Z,71.26
2019-03-23T01:20:49.927Z,71.22
2019-03-23T01:21:46.886Z,71.03
2019-03-23T01:22:46.998Z,71.22
2019-03-23T01:23:47.127Z,70.50
2019-03-23T01:24:47.251Z,70.65
2019-03-23T01:25:47.386Z,70.88
2019-03-23T01:26:47.515Z,70.94
2019-03-23T01:27:47.640Z,70.47
2019-03-23T01:28:47.771Z,70.27
2019-03-23T01:29:47.896Z,70.37
2019-03-23T01:30:48.024Z,70.84
2019-03-23T01:31:48.152Z,70.65
2019-03-23T01:32:48.286Z,71.22
2019-03-23T01:33:48.411Z,71.03
2019-03-23T01:34:48.540Z,71.13
2019-03-23T01:35:48.674Z,71.13
2019-03-23T01:36:48.804Z,71.80
2019-03-23T01:37:48.927Z,71.98
2019-03-23T01:38:49.056Z,71.89
2019-03-23T01:39:49.201Z,71.61
2019-03-23T01:40:49.320Z,71.42
2019-03-23T01:41:49.456Z,71.61
2019-03-23T01:42:49.579Z,71.80
2019-03-23T01:43:49.721Z,72.17
2019-03-23T01:44:49.868Z,72.46
2019-03-23T01:45:50.112Z,72.17
2019-03-23T01:46:50.119Z,71.42
2019-03-23T01:47:50.245Z,71.61
2019-03-23T01:48:50.397Z,71.42
2019-03-23T01:49:50.507Z,72.27
2019-03-23T01:50:50.638Z,71.80
2019-03-23T01:51:50.769Z,71.42
2019-03-23T01:52:50.898Z,71.61
2019-03-23T01:53:51.035Z,72.17
2019-03-23T01:54:51.165Z,71.80
2019-03-23T01:55:51.296Z,71.42
2019-03-23T01:56:51.460Z,71.61
2019-03-23T01:57:51.585Z,72.14
2019-03-23T01:58:51.714Z,72.37
2019-03-23T01:59:51.840Z,72.17
2019-03-23T02:00:51.967Z,72.27
2019-03-23T02:01:52.085Z,72.46
2019-03-23T02:02:52.272Z,72.08
2019-03-23T02:03:52.377Z,71.70
2019-03-23T02:04:52.514Z,71.42
2019-03-23T02:05:52.627Z,71.61
2019-03-23T02:06:52.779Z,71.86
2019-03-23T02:07:52.912Z,71.57
2019-03-23T02:08:53.038Z,71.57
2019-03-23T02:09:53.189Z,71.76
2019-03-23T02:10:53.309Z,72.05
2019-03-23T02:11:53.437Z,72.42
2019-03-23T02:12:53.588Z,72.52
2019-03-23T02:13:53.711Z,72.33
2019-03-23T02:14:53.848Z,72.33
2019-03-23T02:15:53.987Z,72.81
2019-03-23T02:16:54.129Z,72.62
2019-03-23T02:17:54.250Z,72.24
2019-03-23T02:18:54.381Z,72.24
2019-03-23T02:19:54.514Z,72.05
2019-03-23T02:20:54.645Z,72.05
2019-03-23T02:21:54.768Z,71.95
2019-03-23T02:22:54.895Z,72.42
2019-03-23T02:23:55.028Z,71.38
2019-03-23T02:24:55.147Z,71.19
2019-03-23T02:25:55.280Z,71.76
2019-03-23T02:26:55.414Z,71.47
2019-03-23T02:27:55.561Z,71.38
2019-03-23T02:28:55.688Z,71.57
2019-03-23T02:29:55.806Z,71.57
2019-03-23T02:30:55.940Z,71.19
2019-03-23T02:31:56.060Z,71.67
2019-03-23T02:32:56.192Z,72.24
2019-03-23T02:33:56.322Z,71.95
2019-03-23T02:34:56.449Z,72.14
2019-03-23T02:35:56.588Z,72.62
2019-03-23T02:36:56.703Z,72.49
2019-03-23T02:37:56.828Z,72.33
2019-03-23T02:38:56.958Z,72.30
2019-03-23T02:39:57.095Z,72.71
2019-03-23T02:40:57.207Z,72.81
2019-03-23T02:41:57.329Z,72.52
2019-03-23T02:42:57.521Z,72.71
2019-03-23T02:43:57.591Z,72.24
2019-03-23T02:44:57.724Z,72.33
2019-03-23T02:45:57.869Z,72.14
2019-03-23T02:46:57.991Z,72.14
2019-03-23T02:47:58.110Z,72.14
2019-03-23T02:48:58.241Z,72.62
2019-03-23T02:49:58.381Z,72.33
2019-03-23T02:50:58.496Z,72.11
2019-03-23T02:51:58.623Z,72.52
2019-03-23T02:52:58.750Z,72.96
2019-03-23T02:53:58.967Z,72.96
2019-03-23T02:54:59.032Z,72.96
2019-03-23T02:55:59.155Z,73.15
2019-03-23T02:56:59.281Z,73.34
2019-03-23T02:57:59.428Z,73.44
2019-03-23T02:58:59.543Z,73.66
2019-03-23T02:59:59.676Z,72.67
2019-03-23T03:00:59.793Z,73.00
2019-03-23T03:01:59.928Z,73.06
2019-03-23T03:03:00.050Z,73.15
2019-03-23T03:04:00.193Z,72.49
2019-03-23T03:05:00.507Z,72.71
2019-03-23T03:06:00.451Z,72.77
2019-03-23T03:07:00.574Z,72.96
2019-03-23T03:08:00.720Z,72.96
2019-03-23T03:09:00.852Z,73.53
2019-03-23T03:10:00.968Z,73.34
2019-03-23T03:11:01.098Z,74.20
2019-03-23T03:12:01.249Z,73.63
2019-03-23T03:13:01.376Z,72.96
2019-03-23T03:14:01.497Z,72.86
2019-03-23T03:15:01.708Z,72.67
2019-03-23T03:16:01.765Z,73.25
2019-03-23T03:17:01.895Z,72.49
2019-03-23T03:18:02.051Z,72.67
2019-03-23T03:19:02.171Z,73.15
2019-03-23T03:20:02.305Z,72.96
2019-03-23T03:21:02.430Z,73.06
2019-03-23T03:22:02.610Z,72.96
2019-03-23T03:23:02.706Z,72.67
2019-03-23T03:24:02.834Z,73.06
2019-03-23T03:25:02.958Z,73.44
2019-03-23T03:26:03.110Z,73.44
2019-03-23T03:27:03.245Z,73.53
2019-03-23T03:28:03.369Z,73.34
2019-03-23T03:29:03.516Z,73.25
2019-03-23T03:30:03.640Z,72.49
2019-03-23T03:31:03.775Z,72.67
2019-03-23T03:32:03.903Z,72.77
2019-03-23T03:33:04.034Z,73.06
2019-03-23T03:34:04.162Z,73.25
2019-03-23T03:35:04.313Z,72.96
2019-03-23T03:36:04.430Z,73.06
2019-03-23T03:37:04.558Z,73.06
2019-03-23T03:38:04.697Z,72.67
2019-03-23T03:39:04.843Z,73.15
2019-03-23T03:40:04.978Z,73.25
2019-03-23T03:41:05.098Z,72.77
2019-03-23T03:42:05.223Z,72.67
2019-03-23T03:43:05.369Z,73.63
2019-03-23T03:44:05.494Z,73.63
2019-03-23T03:45:05.628Z,74.20
2019-03-23T03:46:05.748Z,73.82
2019-03-23T03:47:05.889Z,73.82
2019-03-23T03:48:06.013Z,73.63
2019-03-23T03:49:12.252Z,73.82
2019-03-23T03:50:06.293Z,74.10
2019-03-23T03:51:06.413Z,73.82
2019-03-23T03:52:06.536Z,74.10
2019-03-23T03:53:06.667Z,73.91
2019-03-23T03:54:06.819Z,73.82
2019-03-23T03:55:06.945Z,73.63
2019-03-23T03:56:07.073Z,73.82
2019-03-23T03:57:07.219Z,73.82
2019-03-23T03:58:07.406Z,73.91
2019-03-23T03:59:07.487Z,74.01
2019-03-23T04:00:07.609Z,74.20
2019-03-23T04:01:07.741Z,73.63
2019-03-23T04:02:07.868Z,73.69
2019-03-23T04:03:07.999Z,73.63
2019-03-23T04:04:08.126Z,73.44
2019-03-23T04:05:08.279Z,73.21
2019-03-23T04:06:08.411Z,73.44
2019-03-23T04:07:08.523Z,73.02
2019-03-23T04:08:11.650Z,72.92
2019-03-23T04:09:08.794Z,73.02
2019-03-23T04:10:08.912Z,73.11
2019-03-23T04:11:09.083Z,72.92
2019-03-23T04:12:09.180Z,72.83
2019-03-23T04:13:09.440Z,72.64
2019-03-23T04:14:09.435Z,72.92
2019-03-23T04:15:09.571Z,72.74
2019-03-23T04:16:09.685Z,72.74
2019-03-23T04:17:09.819Z,73.11
2019-03-23T04:18:10.029Z,72.64
2019-03-23T04:19:10.076Z,72.83
2019-03-23T04:20:10.205Z,73.21
2019-03-23T04:21:10.329Z,73.40
2019-03-23T04:22:10.471Z,73.88
2019-03-23T04:23:10.596Z,73.88
2019-03-23T04:24:10.741Z,74.35
2019-03-23T04:25:10.864Z,73.97
2019-03-23T04:26:11.019Z,73.88
2019-03-23T04:27:11.135Z,74.07
2019-03-23T04:28:11.257Z,73.97
2019-03-23T04:29:11.379Z,73.78
2019-03-23T04:30:11.532Z,73.88
2019-03-23T04:31:11.654Z,73.69
2019-03-23T04:32:11.777Z,73.97
2019-03-23T04:33:11.903Z,73.21
2019-03-23T04:34:12.055Z,72.92
2019-03-23T04:35:12.185Z,73.02
2019-03-23T04:36:12.315Z,72.92
2019-03-23T04:37:12.435Z,72.92
2019-03-23T04:38:22.278Z,73.11
2019-03-23T04:39:12.694Z,73.02
2019-03-23T04:40:12.823Z,73.49
2019-03-23T04:41:12.990Z,73.59
2019-03-23T04:42:13.107Z,73.36
2019-03-23T04:43:13.237Z,74.07
2019-03-23T04:44:13.370Z,73.78
2019-03-23T04:45:13.514Z,73.93
2019-03-23T04:46:13.638Z,73.65
2019-03-23T04:47:13.770Z,73.84
2019-03-23T04:48:13.909Z,73.93
2019-03-23T04:49:14.028Z,73.74
2019-03-23T04:50:14.152Z,73.84
2019-03-23T04:51:14.280Z,73.74
2019-03-23T04:52:14.428Z,73.84
2019-03-23T04:53:14.553Z,74.51
2019-03-23T04:54:14.713Z,74.22
2019-03-23T04:55:14.830Z,74.51
2019-03-23T04:56:14.974Z,74.31
2019-03-23T04:57:15.085Z,73.97
2019-03-23T04:58:15.228Z,74.22
2019-03-23T04:59:15.353Z,73.93
2019-03-23T05:00:15.482Z,73.74
2019-03-23T05:01:15.611Z,73.65
2019-03-23T05:02:15.745Z,73.55
2019-03-23T05:03:15.875Z,73.55
2019-03-23T05:04:16.004Z,73.55
2019-03-23T05:05:16.128Z,74.03
2019-03-23T05:06:16.249Z,73.65
2019-03-23T05:07:16.372Z,73.93
2019-03-23T05:08:16.505Z,73.74
2019-03-23T05:09:16.640Z,74.03
2019-03-23T05:10:16.760Z,73.84
2019-03-23T05:11:16.891Z,73.84
2019-03-23T05:12:17.011Z,73.74
2019-03-23T05:13:17.167Z,73.84
2019-03-23T05:14:17.295Z,74.22
2019-03-23T05:15:17.418Z,74.60
2019-03-23T05:16:17.544Z,73.93
2019-03-23T05:17:17.665Z,74.03
2019-03-23T05:18:17.791Z,74.60
2019-03-23T05:19:17.912Z,74.41
2019-03-23T05:20:18.077Z,74.03
2019-03-23T05:21:18.166Z,73.84
2019-03-23T05:22:18.298Z,73.74
2019-03-23T05:23:18.462Z,74.22
2019-03-23T05:24:18.569Z,73.74
2019-03-23T05:25:18.698Z,73.74
2019-03-23T05:26:18.823Z,73.36
2019-03-23T05:27:19.043Z,73.55
2019-03-23T05:28:19.077Z,73.74
2019-03-23T05:29:19.208Z,73.74
2019-03-23T05:30:19.353Z,73.74
2019-03-23T05:31:19.476Z,74.31
2019-03-23T05:32:19.609Z,74.22
2019-03-23T05:33:19.746Z,74.03
2019-03-23T05:34:19.864Z,74.51
2019-03-23T05:35:19.992Z,74.41
2019-03-23T05:36:20.124Z,74.41
2019-03-23T05:37:20.267Z,74.31
2019-03-23T05:38:20.388Z,74.31
2019-03-23T05:39:20.517Z,74.03
2019-03-23T05:40:20.643Z,74.60
2019-03-23T05:41:20.770Z,74.60
2019-03-23T05:42:20.906Z,74.98
2019-03-23T05:43:21.029Z,74.98
2019-03-23T05:44:21.197Z,75.17
2019-03-23T05:45:21.315Z,74.75
2019-03-23T05:46:21.451Z,74.56
2019-03-23T05:47:21.591Z,75.23
2019-03-23T05:48:21.714Z,75.13
2019-03-23T05:49:21.839Z,75.32
2019-03-23T05:50:21.982Z,75.79
2019-03-23T05:51:22.115Z,75.70
2019-03-23T05:52:22.238Z,75.42
2019-03-23T05:53:22.364Z,75.76
2019-03-23T05:54:22.512Z,76.61
2019-03-23T05:55:22.633Z,76.61
2019-03-23T05:56:22.761Z,77.09
2019-03-23T05:57:22.913Z,77.84
2019-03-23T05:58:23.052Z,77.75
2019-03-23T05:59:23.161Z,77.70
2019-03-23T06:00:23.310Z,77.51
2019-03-23T06:01:23.477Z,77.70
2019-03-23T06:02:23.564Z,77.22
2019-03-23T06:03:23.708Z,77.70
2019-03-23T06:04:23.818Z,77.79
2019-03-23T06:05:24.768Z,77.60
2019-03-23T06:06:24.076Z,77.73
2019-03-23T06:07:24.229Z,77.07
2019-03-23T06:08:24.352Z,77.17
2019-03-23T06:09:24.482Z,76.97
2019-03-23T06:10:24.632Z,76.88
2019-03-23T06:11:24.767Z,76.78
2019-03-23T06:12:24.894Z,76.78
2019-03-23T06:13:25.028Z,76.69
2019-03-23T06:14:25.151Z,76.78
2019-03-23T06:15:25.268Z,76.88
2019-03-23T06:16:25.421Z,76.78
2019-03-23T06:17:25.555Z,76.50
2019-03-23T06:18:25.697Z,76.82
2019-03-23T06:19:25.822Z,76.31
2019-03-23T06:20:25.946Z,76.35
2019-03-23T06:21:26.080Z,76.54
2019-03-23T06:22:26.200Z,76.63
2019-03-23T06:23:26.333Z,75.78
2019-03-23T06:24:26.443Z,75.78
2019-03-23T06:25:26.613Z,75.30
2019-03-23T06:26:26.713Z,74.92
2019-03-23T06:27:26.842Z,75.02
2019-03-23T06:28:26.964Z,75.40
2019-03-23T06:29:27.087Z,75.49
2019-03-23T06:30:27.222Z,75.49
2019-03-23T06:31:27.350Z,75.59
2019-03-23T06:32:27.492Z,75.40
2019-03-23T06:33:27.603Z,75.40
2019-03-23T06:34:27.734Z,75.40
2019-03-23T06:35:27.862Z,75.49
2019-03-23T06:36:27.991Z,74.92
2019-03-23T06:37:28.118Z,75.40
2019-03-23T06:38:28.263Z,75.02
2019-03-23T06:39:28.391Z,75.02
2019-03-23T06:40:28.519Z,75.11
2019-03-23T06:41:28.692Z,75.30
2019-03-23T06:42:28.815Z,75.40
2019-03-23T06:43:28.918Z,75.40
2019-03-23T06:44:29.043Z,75.49
2019-03-23T06:45:29.159Z,75.78
2019-03-23T06:46:29.292Z,76.06
2019-03-23T06:47:29.417Z,75.96
2019-03-23T06:48:29.551Z,75.59
2019-03-23T06:49:29.676Z,76.54
2019-03-23T06:50:29.831Z,77.11
2019-03-23T06:51:29.943Z,76.88
2019-03-23T06:52:30.070Z,77.11
2019-03-23T06:53:30.198Z,77.45
2019-03-23T06:54:30.344Z,77.83
2019-03-23T06:55:30.466Z,78.21
2019-03-23T06:56:30.612Z,78.78
2019-03-23T06:57:30.744Z,79.35
2019-03-23T06:58:30.876Z,79.97
2019-03-23T06:59:30.990Z,80.64
2019-03-23T07:00:31.117Z,81.68
2019-03-23T07:01:31.257Z,81.49
2019-03-23T07:02:31.394Z,82.16
2019-03-23T07:03:31.521Z,82.07
2019-03-23T07:04:31.635Z,81.87
2019-03-23T07:05:31.753Z,82.20
2019-03-23T07:06:31.880Z,82.01
2019-03-23T07:07:32.004Z,82.96
2019-03-23T07:08:32.422Z,83.06
2019-03-23T07:09:32.282Z,83.15
2019-03-23T07:10:32.419Z,83.25
2019-03-23T07:11:32.540Z,82.87
2019-03-23T07:12:32.680Z,83.30
2019-03-23T07:13:32.808Z,83.68
2019-03-23T07:14:32.937Z,84.16
2019-03-23T07:15:33.069Z,84.53
2019-03-23T07:16:33.194Z,84.63
2019-03-23T07:17:33.352Z,84.34
2019-03-23T07:18:33.482Z,85.01
2019-03-23T07:19:33.596Z,85.01
2019-03-23T07:20:33.724Z,84.82
2019-03-23T07:21:33.837Z,84.82
2019-03-23T07:22:33.961Z,85.01
2019-03-23T07:23:34.090Z,85.24
2019-03-23T07:24:34.216Z,85.24
2019-03-23T07:25:34.351Z,85.15
2019-03-23T07:26:34.479Z,84.95
2019-03-23T07:27:34.593Z,84.95
2019-03-23T07:28:34.720Z,85.05
2019-03-23T07:29:34.882Z,84.91
2019-03-23T07:30:35.017Z,85.19
2019-03-23T07:31:35.133Z,84.24
2019-03-23T07:32:35.263Z,84.43
2019-03-23T07:33:35.405Z,84.62
2019-03-23T07:34:35.532Z,84.62
2019-03-23T07:35:35.670Z,84.81
2019-03-23T07:36:35.873Z,84.28
2019-03-23T07:37:35.902Z,83.90
2019-03-23T07:38:36.027Z,83.71
2019-03-23T07:39:36.166Z,84.09
2019-03-23T07:40:36.309Z,84.38
2019-03-23T07:41:36.446Z,84.28
2019-03-23T07:42:36.574Z,84.00
2019-03-23T07:43:36.721Z,84.04
2019-03-23T07:44:36.852Z,82.99
2019-03-23T07:45:36.979Z,83.18
2019-03-23T07:46:37.123Z,83.09
2019-03-23T07:47:37.250Z,82.80
2019-03-23T07:48:37.373Z,82.51
2019-03-23T07:49:37.502Z,82.14
2019-03-23T07:50:37.635Z,82.23
2019-03-23T07:51:37.786Z,82.32
2019-03-23T07:52:37.908Z,82.51
2019-03-23T07:53:38.048Z,82.80
2019-03-23T07:54:38.176Z,82.46
2019-03-23T07:57:10.500Z,81.79
2019-03-23T07:58:10.633Z,81.79
2019-03-23T07:59:10.775Z,81.32
2019-03-23T08:00:10.896Z,80.94
2019-03-23T08:01:11.023Z,80.94
2019-03-23T08:02:11.166Z,80.94
2019-03-23T08:03:11.279Z,80.84
2019-03-23T08:04:11.408Z,80.46
2019-03-23T08:05:11.532Z,80.41
2019-03-23T08:06:11.669Z,80.60
2019-03-23T08:07:11.803Z,80.31
2019-03-23T08:08:11.925Z,79.83
2019-03-23T08:09:20.027Z,79.55
2019-03-23T08:10:12.206Z,79.07
2019-03-23T08:11:12.333Z,79.27
2019-03-23T08:12:12.466Z,78.88
2019-03-23T08:13:12.615Z,78.78
2019-03-23T08:14:12.721Z,79.64
2019-03-23T08:15:12.848Z,79.74
2019-03-23T08:16:13.013Z,79.74
2019-03-23T08:17:13.137Z,79.55
2019-03-23T08:18:13.264Z,79.17
2019-03-23T08:19:13.423Z,78.78
2019-03-23T08:20:13.555Z,79.17
2019-03-23T08:21:13.680Z,78.88
2019-03-23T08:22:13.820Z,78.88
2019-03-23T08:23:13.970Z,78.78
2019-03-23T08:24:14.097Z,78.41
2019-03-23T08:25:14.241Z,78.88
2019-03-23T08:26:14.375Z,79.11
2019-03-23T08:27:14.543Z,79.02
2019-03-23T08:28:14.668Z,79.11
2019-03-23T08:29:14.789Z,79.40
2019-03-23T08:30:14.915Z,79.02
2019-03-23T08:31:15.048Z,79.49
2019-03-23T08:32:15.177Z,79.97
2019-03-23T08:33:15.307Z,79.97
2019-03-23T08:34:15.437Z,79.49
2019-03-23T08:35:15.597Z,79.59
2019-03-23T08:37:47.651Z,80.20
2019-03-23T08:38:47.759Z,79.72
2019-03-23T08:39:48.730Z,79.44
2019-03-23T08:40:48.066Z,77.91
2019-03-23T08:41:48.190Z,77.15
2019-03-23T08:42:48.317Z,76.10
2019-03-23T08:43:48.468Z,76.39
2019-03-23T08:44:48.601Z,75.43
2019-03-23T08:45:48.735Z,75.81
2019-03-23T08:46:48.870Z,76.29
2019-03-23T08:47:48.999Z,76.20
2019-03-23T08:48:49.123Z,76.39
2019-03-23T08:49:49.269Z,77.09
2019-03-23T08:50:49.408Z,77.28
2019-03-23T08:51:49.525Z,77.00
2019-03-23T08:52:49.660Z,76.52
2019-03-23T08:53:49.809Z,76.52
2019-03-23T08:54:49.942Z,75.47
2019-03-23T08:55:50.073Z,75.66
2019-03-23T08:56:50.200Z,75.47
2019-03-23T08:57:50.375Z,75.76
2019-03-23T08:58:50.598Z,75.66
2019-03-23T08:59:50.601Z,75.89
2019-03-23T09:00:50.740Z,75.51
2019-03-23T09:01:50.903Z,75.22
2019-03-23T09:02:51.002Z,74.74
2019-03-23T09:03:52.676Z,74.17
2019-03-23T09:04:51.278Z,74.17
2019-03-23T09:05:51.412Z,74.65
2019-03-23T09:06:51.561Z,74.93
2019-03-23T09:07:52.705Z,74.93
2019-03-23T09:08:51.817Z,75.13
2019-03-23T09:09:59.075Z,74.46
2019-03-23T09:10:52.071Z,73.50
2019-03-23T09:11:52.247Z,72.93
2019-03-23T09:12:52.367Z,72.01
2019-03-23T09:13:52.505Z,71.82
2019-03-23T09:14:52.631Z,72.58
2019-03-23T09:15:52.776Z,72.78
2019-03-23T09:16:52.967Z,72.30
2019-03-23T09:17:52.986Z,72.01
2019-03-23T09:18:53.109Z,70.96
2019-03-23T09:19:53.250Z,71.25
2019-03-23T09:20:53.380Z,72.01
2019-03-23T09:21:53.516Z,72.68
2019-03-23T09:22:53.650Z,71.47
2019-03-23T09:23:53.784Z,71.28
2019-03-23T09:24:57.087Z,71.28
2019-03-23T09:25:54.041Z,71.38
2019-03-23T09:26:54.168Z,70.33
2019-03-23T09:27:54.303Z,69.66
2019-03-23T09:28:54.436Z,69.60
2019-03-23T09:29:54.579Z,69.12
2019-03-23T09:30:54.710Z,68.99
2019-03-23T09:31:54.843Z,70.17
2019-03-23T09:32:56.945Z,69.98
2019-03-23T09:33:55.105Z,70.27
2019-03-23T09:34:55.245Z,69.79
2019-03-23T09:35:55.377Z,70.07
2019-03-23T09:36:55.507Z,69.25
2019-03-23T09:37:55.642Z,69.06
2019-03-23T09:38:55.779Z,68.87
2019-03-23T09:39:55.918Z,68.68
2019-03-23T09:40:56.058Z,68.49
2019-03-23T09:41:56.186Z,67.43
2019-03-23T09:42:56.327Z,67.34
2019-03-23T09:43:56.457Z,67.82
2019-03-23T09:44:56.591Z,67.05
2019-03-23T09:45:56.722Z,67.14
2019-03-23T09:46:56.858Z,67.82
2019-03-23T09:47:56.997Z,66.41
2019-03-23T09:48:57.121Z,66.47
2019-03-23T09:49:57.260Z,65.36
2019-03-23T09:50:57.388Z,65.74
2019-03-23T09:51:57.511Z,66.70
2019-03-23T09:52:57.658Z,66.99
2019-03-23T09:53:57.778Z,66.83
2019-03-23T09:54:57.915Z,67.31
2019-03-23T09:55:58.051Z,65.97
2019-03-23T09:56:59.572Z,64.63
2019-03-23T09:57:58.313Z,64.92
2019-03-23T09:58:58.453Z,63.32
2019-03-23T09:59:58.637Z,63.70
2019-03-23T10:00:58.757Z,63.42
2019-03-23T10:01:58.903Z,63.03
2019-03-23T10:02:59.026Z,63.60
2019-03-23T10:03:59.148Z,61.98
2019-03-23T10:04:59.278Z,61.69
2019-03-23T10:05:59.416Z,61.43
2019-03-23T10:06:59.582Z,61.63
2019-03-23T10:07:59.708Z,62.87
2019-03-23T10:08:59.843Z,65.26
2019-03-23T10:10:00.062Z,64.02
2019-03-23T10:11:00.112Z,62.68
2019-03-23T10:12:00.244Z,60.50
2019-03-23T10:13:00.385Z,59.06
2019-03-23T10:14:00.519Z,58.49
2019-03-23T10:15:00.660Z,57.24
2019-03-23T10:16:00.787Z,57.24
2019-03-23T10:17:00.933Z,57.34
2019-03-23T10:18:01.736Z,58.20
2019-03-23T10:19:01.209Z,59.83
2019-03-23T10:20:01.332Z,59.93
2019-03-23T10:21:01.462Z,60.31
2019-03-23T10:22:01.598Z,59.00
2019-03-23T10:23:01.785Z,57.37
2019-03-23T10:24:01.895Z,58.14
2019-03-23T10:25:02.037Z,59.58
2019-03-23T10:26:02.184Z,57.18
2019-03-23T10:27:02.327Z,56.31
2019-03-23T10:28:02.449Z,56.02
2019-03-23T10:29:02.612Z,55.93
2019-03-23T10:30:02.712Z,55.16
2019-03-23T10:31:02.871Z,57.37
2019-03-23T10:32:03.005Z,58.17
2019-03-23T10:33:03.156Z,59.61
2019-03-23T10:34:03.277Z,58.26
2019-03-23T10:35:03.413Z,56.24
2019-03-23T10:36:03.582Z,54.33
2019-03-23T10:37:03.714Z,55.86
2019-03-23T10:38:03.846Z,54.13
2019-03-23T10:39:03.982Z,55.60
2019-03-23T10:40:04.124Z,57.11
2019-03-23T10:41:04.258Z,57.43
2019-03-23T10:42:04.380Z,57.52
2019-03-23T10:43:04.523Z,57.43
2019-03-23T10:44:04.721Z,55.60
2019-03-23T10:45:04.812Z,56.08
2019-03-23T10:46:04.936Z,57.17
2019-03-23T10:47:05.067Z,55.63
2019-03-23T10:48:05.204Z,53.42
2019-03-23T10:49:05.338Z,53.23
2019-03-23T10:50:05.569Z,54.89
2019-03-23T10:51:05.632Z,54.02
2019-03-23T10:52:05.768Z,53.25
2019-03-23T10:53:05.911Z,52.00
2019-03-23T10:54:06.047Z,52.61
2019-03-23T10:55:06.186Z,52.89
2019-03-23T10:56:06.324Z,53.09
2019-03-23T10:57:06.464Z,51.64
2019-03-23T10:58:06.604Z,50.81
2019-03-23T10:59:06.731Z,52.73
2019-03-23T11:00:06.868Z,51.98
2019-03-23T11:01:07.015Z,48.83
2019-03-23T11:02:07.176Z,50.76
2019-03-23T11:03:07.302Z,49.15
2019-03-23T11:04:07.447Z,47.89
2019-03-23T11:05:07.583Z,47.89
2019-03-23T11:06:07.772Z,47.22
2019-03-23T11:07:07.880Z,47.22
2019-03-23T11:08:08.017Z,45.89
2019-03-23T11:09:08.182Z,44.66
2019-03-23T11:10:08.305Z,43.31
2019-03-23T11:11:08.458Z,43.24
2019-03-23T11:12:08.599Z,42.75
2019-03-23T11:13:08.749Z,42.94
2019-03-23T11:14:08.890Z,42.10
2019-03-23T11:15:09.030Z,42.29
2019-03-23T11:16:09.167Z,42.12
2019-03-23T11:17:09.357Z,42.58
2019-03-23T11:18:09.470Z,42.85
2019-03-23T11:19:13.242Z,44.10
2019-03-23T11:20:09.772Z,42.85
2019-03-23T11:21:09.905Z,42.75
2019-03-23T11:22:10.049Z,42.66
2019-03-23T11:23:10.175Z,43.84
2019-03-23T11:24:10.338Z,45.67
2019-03-23T11:25:10.485Z,44.22
2019-03-23T11:26:10.623Z,44.22
2019-03-23T11:27:10.767Z,43.74
2019-03-23T11:28:10.927Z,45.09
2019-03-23T11:29:11.071Z,45.96
2019-03-23T11:30:11.222Z,46.95
2019-03-23T11:31:11.356Z,45.11
2019-03-23T11:32:11.542Z,44.07
2019-03-23T11:33:11.693Z,42.72
2019-03-23T11:34:17.841Z,41.94
2019-03-23T11:35:12.030Z,41.85
2019-03-23T11:36:12.130Z,41.58
2019-03-23T11:37:12.299Z,41.77
2019-03-23T11:38:12.423Z,42.04
2019-03-23T11:39:12.554Z,42.25
2019-03-23T11:40:12.706Z,41.79
2019-03-23T11:41:12.871Z,41.70
2019-03-23T11:42:12.990Z,40.73
2019-03-23T11:43:13.144Z,40.53
2019-03-23T11:44:13.286Z,39.64
2019-03-23T11:45:13.418Z,39.55
2019-03-23T11:46:13.565Z,40.63
2019-03-23T11:47:13.721Z,39.88
2019-03-23T11:48:13.920Z,39.78
2019-03-23T11:49:14.016Z,39.70
2019-03-23T11:50:14.181Z,40.11
2019-03-23T11:51:14.328Z,39.62
2019-03-23T11:52:14.475Z,39.04
2019-03-23T11:53:14.620Z,38.07
2019-03-23T11:54:14.770Z,37.69
2019-03-23T11:55:14.907Z,37.30
2019-03-23T11:56:15.070Z,37.79
2019-03-23T11:57:15.213Z,39.14
2019-03-23T11:58:15.378Z,38.48
2019-03-23T11:59:15.523Z,35.86
2019-03-23T12:00:15.674Z,35.59
2019-03-23T12:01:15.808Z,35.59
2019-03-23T12:02:15.962Z,36.36
2019-03-23T12:03:16.126Z,36.24
2019-03-23T12:04:16.252Z,37.79
2019-03-23T12:05:16.400Z,39.14
2019-03-23T12:06:16.546Z,38.78
2019-03-23T12:07:16.689Z,37.90
2019-03-23T12:08:16.840Z,37.63
2019-03-23T12:09:16.985Z,37.53
2019-03-23T12:10:17.147Z,37.24
2019-03-23T12:11:17.284Z,34.81
2019-03-23T12:12:17.430Z,36.38
2019-03-23T12:13:17.570Z,35.53
2019-03-23T12:14:17.746Z,35.14
2019-03-23T12:15:17.890Z,35.35
2019-03-23T12:16:18.041Z,33.34
2019-03-23T12:17:18.198Z,32.78
2019-03-23T12:18:18.384Z,32.59
2019-03-23T12:19:18.518Z,32.47
2019-03-23T12:20:18.654Z,32.47
2019-03-23T12:21:18.818Z,33.06
2019-03-23T12:22:19.004Z,32.97
2019-03-23T12:23:19.141Z,31.81
2019-03-23T12:24:19.292Z,32.79
2019-03-23T12:25:19.449Z,33.38
2019-03-23T12:26:19.602Z,31.74
2019-03-23T12:27:19.744Z,31.35
2019-03-23T12:28:19.904Z,31.85
2019-03-23T12:29:20.042Z,29.82
2019-03-23T12:30:20.190Z,30.21
2019-03-23T12:31:20.336Z,28.36
2019-03-23T12:32:20.489Z,27.98
2019-03-23T12:33:21.545Z,29.54
2019-03-23T12:34:20.808Z,29.44
2019-03-23T12:35:20.958Z,29.46
2019-03-23T12:36:21.118Z,28.30
2019-03-23T12:37:21.273Z,27.81
2019-03-23T12:38:21.439Z,26.46
2019-03-23T12:39:21.574Z,26.95
2019-03-23T12:40:21.736Z,26.35
2019-03-23T12:41:23.435Z,27.41
2019-03-23T12:42:22.060Z,28.19
2019-03-23T12:43:22.202Z,27.70
2019-03-23T12:44:22.353Z,27.23
2019-03-23T12:45:22.518Z,27.23
2019-03-23T12:46:22.663Z,26.93
2019-03-23T12:47:22.819Z,27.23
2019-03-23T12:48:22.960Z,27.81
2019-03-23T12:49:23.175Z,26.82
2019-03-23T12:50:23.324Z,27.03
2019-03-23T12:51:23.466Z,27.25
2019-03-23T12:52:23.620Z,28.04
2019-03-23T12:53:23.784Z,27.26
2019-03-23T12:54:23.936Z,27.08
2019-03-23T12:55:24.098Z,25.92
2019-03-23T12:56:24.250Z,25.12
2019-03-23T12:57:24.403Z,25.92